Terminal Aerodrome Forecast
Issued by NWS

Home | Current Version | Previous Version | Graphics & Text | Print | Product List | Glossary On
Versions: 1 2 3 4 5 6 7 8 9 10 11 12 13 14 15 16 17 18
000
FTUS43 KGRB 301720
TAFCWA
TAF
KCWA 301720Z 3018/3118 28014G20KT P6SM SKC
     FM302000 28016G22KT P6SM SCT060
     FM310000 27007KT P6SM SKC
     FM310900 27005KT P6SM SCT070
     FM311400 28013G18KT P6SM SKC=

USA.gov is the U.S. government's official web portal to all federal, state and local government web resources and services.